sensor_id;sensor_type;location;lat;lon;timestamp;P1;durP1;ratioP1;P2;durP2;ratioP2
22359;SDS011;11347;52.030;4.690;2022-07-05T00:01:20;1.87;;;0.80;;
22359;SDS011;11347;52.030;4.690;2022-07-05T00:03:49;1.77;;;0.80;;
22359;SDS011;11347;52.030;4.690;2022-07-05T00:06:14;2.27;;;0.80;;
22359;SDS011;11347;52.030;4.690;2022-07-05T00:08:40;2.43;;;1.30;;
22359;SDS011;11347;52.030;4.690;2022-07-05T00:11:09;1.90;;;1.27;;
22359;SDS011;11347;52.030;4.690;2022-07-05T00:13:35;1.80;;;1.00;;
22359;SDS011;11347;52.030;4.690;2022-07-05T00:16:01;2.17;;;1.23;;
22359;SDS011;11347;52.030;4.690;2022-07-05T00:18:29;2.80;;;1.40;;
22359;SDS011;11347;52.030;4.690;2022-07-05T00:20:55;3.23;;;1.50;;
22359;SDS011;11347;52.030;4.690;2022-07-05T00:23:20;2.00;;;1.37;;
22359;SDS011;11347;52.030;4.690;2022-07-05T00:25:46;1.93;;;1.10;;
22359;SDS011;11347;52.030;4.690;2022-07-05T00:28:11;2.33;;;1.30;;
22359;SDS011;11347;52.030;4.690;2022-07-05T00:30:43;2.17;;;1.20;;
22359;SDS011;11347;52.030;4.690;2022-07-05T00:33:08;1.67;;;1.20;;
22359;SDS011;11347;52.030;4.690;2022-07-05T00:35:40;2.73;;;1.30;;
22359;SDS011;11347;52.030;4.690;2022-07-05T00:38:05;1.90;;;1.13;;
22359;SDS011;11347;52.030;4.690;2022-07-05T00:40:31;3.77;;;1.10;;
22359;SDS011;11347;52.030;4.690;2022-07-05T00:42:57;2.37;;;1.33;;
22359;SDS011;11347;52.030;4.690;2022-07-05T00:45:22;3.43;;;1.40;;
22359;SDS011;11347;52.030;4.690;2022-07-05T00:47:48;3.43;;;1.13;;
22359;SDS011;11347;52.030;4.690;2022-07-05T00:50:14;3.40;;;1.30;;
22359;SDS011;11347;52.030;4.690;2022-07-05T00:52:39;3.03;;;1.40;;
22359;SDS011;11347;52.030;4.690;2022-07-05T00:55:05;3.27;;;1.37;;
22359;SDS011;11347;52.030;4.690;2022-07-05T00:57:32;4.23;;;1.30;;
22359;SDS011;11347;52.030;4.690;2022-07-05T00:59:58;2.20;;;1.30;;
22359;SDS011;11347;52.030;4.690;2022-07-05T01:02:24;2.37;;;1.37;;
22359;SDS011;11347;52.030;4.690;2022-07-05T01:04:50;3.20;;;1.40;;
22359;SDS011;11347;52.030;4.690;2022-07-05T01:07:17;2.30;;;1.30;;
22359;SDS011;11347;52.030;4.690;2022-07-05T01:09:46;2.20;;;1.20;;
22359;SDS011;11347;52.030;4.690;2022-07-05T01:12:12;2.80;;;1.30;;
22359;SDS011;11347;52.030;4.690;2022-07-05T01:14:38;4.63;;;1.70;;
22359;SDS011;11347;52.030;4.690;2022-07-05T01:17:07;3.57;;;1.50;;
22359;SDS011;11347;52.030;4.690;2022-07-05T01:19:32;7.40;;;1.50;;
22359;SDS011;11347;52.030;4.690;2022-07-05T01:21:58;2.63;;;1.07;;
22359;SDS011;11347;52.030;4.690;2022-07-05T01:24:31;2.33;;;1.20;;
22359;SDS011;11347;52.030;4.690;2022-07-05T01:26:57;2.53;;;1.30;;
22359;SDS011;11347;52.030;4.690;2022-07-05T01:29:23;3.67;;;1.10;;
22359;SDS011;11347;52.030;4.690;2022-07-05T01:31:48;2.50;;;1.47;;
22359;SDS011;11347;52.030;4.690;2022-07-05T01:34:14;2.77;;;1.30;;
22359;SDS011;11347;52.030;4.690;2022-07-05T01:36:39;2.17;;;1.23;;
22359;SDS011;11347;52.030;4.690;2022-07-05T01:39:06;2.37;;;1.20;;
22359;SDS011;11347;52.030;4.690;2022-07-05T01:41:32;4.00;;;1.60;;
22359;SDS011;11347;52.030;4.690;2022-07-05T01:43:58;3.40;;;1.50;;
22359;SDS011;11347;52.030;4.690;2022-07-05T01:46:24;2.80;;;1.37;;
22359;SDS011;11347;52.030;4.690;2022-07-05T01:48:55;3.03;;;1.47;;
22359;SDS011;11347;52.030;4.690;2022-07-05T01:51:29;2.63;;;1.30;;
22359;SDS011;11347;52.030;4.690;2022-07-05T01:54:10;2.50;;;1.50;;
22359;SDS011;11347;52.030;4.690;2022-07-05T01:56:36;1.67;;;1.30;;
22359;SDS011;11347;52.030;4.690;2022-07-05T01:59:03;2.63;;;1.40;;
22359;SDS011;11347;52.030;4.690;2022-07-05T02:01:36;2.77;;;1.40;;
22359;SDS011;11347;52.030;4.690;2022-07-05T02:04:04;3.27;;;1.40;;
22359;SDS011;11347;52.030;4.690;2022-07-05T02:06:31;2.67;;;1.23;;
22359;SDS011;11347;52.030;4.690;2022-07-05T02:08:58;2.40;;;1.40;;
22359;SDS011;11347;52.030;4.690;2022-07-05T02:11:28;2.83;;;1.53;;
22359;SDS011;11347;52.030;4.690;2022-07-05T02:13:53;2.50;;;1.70;;
22359;SDS011;11347;52.030;4.690;2022-07-05T02:16:25;3.17;;;1.60;;
22359;SDS011;11347;52.030;4.690;2022-07-05T02:18:52;2.20;;;1.40;;
22359;SDS011;11347;52.030;4.690;2022-07-05T02:21:18;2.37;;;1.30;;
22359;SDS011;11347;52.030;4.690;2022-07-05T02:23:43;4.27;;;1.73;;
22359;SDS011;11347;52.030;4.690;2022-07-05T02:26:09;3.00;;;1.40;;
22359;SDS011;11347;52.030;4.690;2022-07-05T02:28:35;2.60;;;1.53;;
22359;SDS011;11347;52.030;4.690;2022-07-05T02:31:00;3.43;;;1.50;;
22359;SDS011;11347;52.030;4.690;2022-07-05T02:33:26;4.20;;;1.60;;
22359;SDS011;11347;52.030;4.690;2022-07-05T02:35:51;2.50;;;1.73;;
22359;SDS011;11347;52.030;4.690;2022-07-05T02:38:17;4.17;;;2.10;;
22359;SDS011;11347;52.030;4.690;2022-07-05T02:40:42;3.80;;;1.90;;
22359;SDS011;11347;52.030;4.690;2022-07-05T02:43:08;4.60;;;1.80;;
22359;SDS011;11347;52.030;4.690;2022-07-05T02:45:34;2.83;;;1.63;;
22359;SDS011;11347;52.030;4.690;2022-07-05T02:48:05;4.00;;;1.90;;
22359;SDS011;11347;52.030;4.690;2022-07-05T02:50:31;3.20;;;1.67;;
22359;SDS011;11347;52.030;4.690;2022-07-05T02:52:56;2.87;;;1.50;;
22359;SDS011;11347;52.030;4.690;2022-07-05T02:55:22;2.20;;;1.57;;
22359;SDS011;11347;52.030;4.690;2022-07-05T02:57:50;3.10;;;1.77;;
22359;SDS011;11347;52.030;4.690;2022-07-05T03:00:19;2.60;;;1.53;;
22359;SDS011;11347;52.030;4.690;2022-07-05T03:02:45;3.10;;;1.80;;
22359;SDS011;11347;52.030;4.690;2022-07-05T03:05:10;3.53;;;1.50;;
22359;SDS011;11347;52.030;4.690;2022-07-05T03:07:39;2.20;;;1.60;;
22359;SDS011;11347;52.030;4.690;2022-07-05T03:10:04;2.20;;;1.50;;
22359;SDS011;11347;52.030;4.690;2022-07-05T03:12:36;3.17;;;1.70;;
22359;SDS011;11347;52.030;4.690;2022-07-05T03:15:01;2.50;;;1.37;;
22359;SDS011;11347;52.030;4.690;2022-07-05T03:17:27;2.70;;;1.60;;
22359;SDS011;11347;52.030;4.690;2022-07-05T03:19:53;4.23;;;1.93;;
22359;SDS011;11347;52.030;4.690;2022-07-05T03:22:18;2.93;;;1.80;;
22359;SDS011;11347;52.030;4.690;2022-07-05T03:24:44;3.00;;;1.70;;
22359;SDS011;11347;52.030;4.690;2022-07-05T03:27:09;4.97;;;1.80;;
22359;SDS011;11347;52.030;4.690;2022-07-05T03:29:35;3.10;;;1.60;;
22359;SDS011;11347;52.030;4.690;2022-07-05T03:32:00;2.20;;;1.70;;
22359;SDS011;11347;52.030;4.690;2022-07-05T03:34:26;2.73;;;1.60;;
22359;SDS011;11347;52.030;4.690;2022-07-05T03:36:52;4.27;;;1.80;;
22359;SDS011;11347;52.030;4.690;2022-07-05T03:39:17;5.63;;;1.90;;
22359;SDS011;11347;52.030;4.690;2022-07-05T03:41:43;4.07;;;1.70;;
22359;SDS011;11347;52.030;4.690;2022-07-05T03:44:08;3.33;;;1.60;;
22359;SDS011;11347;52.030;4.690;2022-07-05T03:46:34;2.93;;;1.30;;
22359;SDS011;11347;52.030;4.690;2022-07-05T03:48:59;2.60;;;1.80;;
22359;SDS011;11347;52.030;4.690;2022-07-05T03:51:25;5.10;;;1.67;;
22359;SDS011;11347;52.030;4.690;2022-07-05T03:53:51;2.93;;;1.77;;
22359;SDS011;11347;52.030;4.690;2022-07-05T03:56:16;3.03;;;1.70;;
22359;SDS011;11347;52.030;4.690;2022-07-05T03:58:46;3.97;;;1.70;;
22359;SDS011;11347;52.030;4.690;2022-07-05T04:01:12;2.37;;;1.50;;
22359;SDS011;11347;52.030;4.690;2022-07-05T04:03:38;2.77;;;1.43;;
22359;SDS011;11347;52.030;4.690;2022-07-05T04:06:08;1.77;;;1.40;;
22359;SDS011;11347;52.030;4.690;2022-07-05T04:08:34;2.97;;;1.60;;
22359;SDS011;11347;52.030;4.690;2022-07-05T04:10:59;2.90;;;1.37;;
22359;SDS011;11347;52.030;4.690;2022-07-05T04:13:25;4.70;;;1.77;;
22359;SDS011;11347;52.030;4.690;2022-07-05T04:15:51;2.57;;;1.70;;
22359;SDS011;11347;52.030;4.690;2022-07-05T04:18:18;3.63;;;1.60;;
22359;SDS011;11347;52.030;4.690;2022-07-05T04:20:43;2.13;;;1.50;;
22359;SDS011;11347;52.030;4.690;2022-07-05T04:23:09;4.23;;;1.80;;
22359;SDS011;11347;52.030;4.690;2022-07-05T04:25:38;2.43;;;1.50;;
22359;SDS011;11347;52.030;4.690;2022-07-05T04:28:06;2.60;;;1.63;;
22359;SDS011;11347;52.030;4.690;2022-07-05T04:30:32;2.60;;;1.70;;
22359;SDS011;11347;52.030;4.690;2022-07-05T04:32:58;2.50;;;1.60;;
22359;SDS011;11347;52.030;4.690;2022-07-05T04:35:24;2.77;;;1.70;;
22359;SDS011;11347;52.030;4.690;2022-07-05T04:37:49;2.53;;;1.57;;
22359;SDS011;11347;52.030;4.690;2022-07-05T04:40:15;4.40;;;1.87;;
22359;SDS011;11347;52.030;4.690;2022-07-05T04:42:41;3.47;;;1.70;;
22359;SDS011;11347;52.030;4.690;2022-07-05T04:45:07;2.70;;;1.70;;
22359;SDS011;11347;52.030;4.690;2022-07-05T04:47:33;2.33;;;1.33;;
22359;SDS011;11347;52.030;4.690;2022-07-05T04:50:08;2.23;;;1.57;;
22359;SDS011;11347;52.030;4.690;2022-07-05T04:52:34;3.37;;;1.70;;
22359;SDS011;11347;52.030;4.690;2022-07-05T04:55:03;2.40;;;1.60;;
22359;SDS011;11347;52.030;4.690;2022-07-05T04:57:47;5.30;;;1.90;;
22359;SDS011;11347;52.030;4.690;2022-07-05T05:00:13;2.97;;;1.90;;
22359;SDS011;11347;52.030;4.690;2022-07-05T05:02:39;3.93;;;1.70;;
22359;SDS011;11347;52.030;4.690;2022-07-05T05:05:05;4.47;;;1.60;;
22359;SDS011;11347;52.030;4.690;2022-07-05T05:07:31;3.53;;;1.83;;
22359;SDS011;11347;52.030;4.690;2022-07-05T05:09:58;3.00;;;2.13;;
22359;SDS011;11347;52.030;4.690;2022-07-05T05:12:23;3.93;;;1.90;;
22359;SDS011;11347;52.030;4.690;2022-07-05T05:14:49;3.17;;;1.50;;
22359;SDS011;11347;52.030;4.690;2022-07-05T05:17:18;3.77;;;2.00;;
22359;SDS011;11347;52.030;4.690;2022-07-05T05:19:43;3.33;;;1.60;;
22359;SDS011;11347;52.030;4.690;2022-07-05T05:22:09;3.57;;;1.93;;
22359;SDS011;11347;52.030;4.690;2022-07-05T05:24:35;4.10;;;2.30;;
22359;SDS011;11347;52.030;4.690;2022-07-05T05:27:01;3.80;;;2.27;;
22359;SDS011;11347;52.030;4.690;2022-07-05T05:29:27;5.30;;;2.40;;
22359;SDS011;11347;52.030;4.690;2022-07-05T05:31:52;6.17;;;2.77;;
22359;SDS011;11347;52.030;4.690;2022-07-05T05:34:18;4.23;;;2.53;;
22359;SDS011;11347;52.030;4.690;2022-07-05T05:36:48;5.87;;;2.67;;
22359;SDS011;11347;52.030;4.690;2022-07-05T05:39:13;6.47;;;2.13;;
22359;SDS011;11347;52.030;4.690;2022-07-05T05:41:39;3.70;;;2.00;;
22359;SDS011;11347;52.030;4.690;2022-07-05T05:44:05;2.83;;;1.90;;
22359;SDS011;11347;52.030;4.690;2022-07-05T05:46:30;2.63;;;1.70;;
22359;SDS011;11347;52.030;4.690;2022-07-05T05:48:56;4.73;;;2.40;;
22359;SDS011;11347;52.030;4.690;2022-07-05T05:51:26;6.40;;;2.20;;
22359;SDS011;11347;52.030;4.690;2022-07-05T05:53:52;3.43;;;2.00;;
22359;SDS011;11347;52.030;4.690;2022-07-05T05:56:17;5.97;;;2.00;;
22359;SDS011;11347;52.030;4.690;2022-07-05T05:58:43;4.43;;;2.23;;
22359;SDS011;11347;52.030;4.690;2022-07-05T06:01:08;4.20;;;2.37;;
22359;SDS011;11347;52.030;4.690;2022-07-05T06:03:55;4.33;;;2.30;;
22359;SDS011;11347;52.030;4.690;2022-07-05T06:06:20;5.47;;;1.80;;
22359;SDS011;11347;52.030;4.690;2022-07-05T06:08:45;4.40;;;2.20;;
22359;SDS011;11347;52.030;4.690;2022-07-05T06:11:11;4.87;;;2.00;;
22359;SDS011;11347;52.030;4.690;2022-07-05T06:13:38;5.97;;;2.00;;
22359;SDS011;11347;52.030;4.690;2022-07-05T06:16:05;4.00;;;2.00;;
22359;SDS011;11347;52.030;4.690;2022-07-05T06:18:32;4.43;;;1.90;;
22359;SDS011;11347;52.030;4.690;2022-07-05T06:20:57;7.67;;;1.90;;
22359;SDS011;11347;52.030;4.690;2022-07-05T06:23:23;3.73;;;1.60;;
22359;SDS011;11347;52.030;4.690;2022-07-05T06:25:49;2.27;;;1.50;;
22359;SDS011;11347;52.030;4.690;2022-07-05T06:28:14;3.47;;;1.57;;
22359;SDS011;11347;52.030;4.690;2022-07-05T06:30:41;2.93;;;1.63;;
22359;SDS011;11347;52.030;4.690;2022-07-05T06:33:07;2.90;;;1.20;;
22359;SDS011;11347;52.030;4.690;2022-07-05T06:35:41;3.03;;;1.07;;
22359;SDS011;11347;52.030;4.690;2022-07-05T06:38:08;3.10;;;1.13;;
22359;SDS011;11347;52.030;4.690;2022-07-05T06:40:35;2.93;;;0.93;;
22359;SDS011;11347;52.030;4.690;2022-07-05T06:43:03;2.93;;;1.00;;
22359;SDS011;11347;52.030;4.690;2022-07-05T06:45:30;2.63;;;0.97;;
22359;SDS011;11347;52.030;4.690;2022-07-05T06:48:03;4.77;;;1.20;;
22359;SDS011;11347;52.030;4.690;2022-07-05T06:50:30;3.63;;;1.10;;
22359;SDS011;11347;52.030;4.690;2022-07-05T06:52:58;2.30;;;0.80;;
22359;SDS011;11347;52.030;4.690;2022-07-05T06:55:24;2.13;;;0.80;;
22359;SDS011;11347;52.030;4.690;2022-07-05T07:00:25;1.83;;;0.80;;
22359;SDS011;11347;52.030;4.690;2022-07-05T07:02:53;1.10;;;0.63;;
22359;SDS011;11347;52.030;4.690;2022-07-05T07:05:19;2.03;;;0.80;;
22359;SDS011;11347;52.030;4.690;2022-07-05T07:07:48;2.63;;;0.70;;
22359;SDS011;11347;52.030;4.690;2022-07-05T07:10:32;1.70;;;0.70;;
22359;SDS011;11347;52.030;4.690;2022-07-05T07:12:57;1.20;;;0.60;;
22359;SDS011;11347;52.030;4.690;2022-07-05T07:15:23;1.60;;;0.60;;
22359;SDS011;11347;52.030;4.690;2022-07-05T07:17:49;3.43;;;0.80;;
22359;SDS011;11347;52.030;4.690;2022-07-05T07:20:15;2.87;;;0.70;;
22359;SDS011;11347;52.030;4.690;2022-07-05T07:22:40;2.37;;;0.80;;
22359;SDS011;11347;52.030;4.690;2022-07-05T07:25:06;2.63;;;0.70;;
22359;SDS011;11347;52.030;4.690;2022-07-05T07:27:40;2.37;;;0.77;;
22359;SDS011;11347;52.030;4.690;2022-07-05T07:30:26;2.30;;;0.70;;
22359;SDS011;11347;52.030;4.690;2022-07-05T07:32:53;1.93;;;0.60;;
22359;SDS011;11347;52.030;4.690;2022-07-05T07:35:20;3.77;;;0.80;;
22359;SDS011;11347;52.030;4.690;2022-07-05T07:37:46;4.67;;;0.70;;
22359;SDS011;11347;52.030;4.690;2022-07-05T07:40:12;3.13;;;0.80;;
22359;SDS011;11347;52.030;4.690;2022-07-05T07:42:38;3.83;;;0.83;;
22359;SDS011;11347;52.030;4.690;2022-07-05T07:45:06;3.13;;;0.90;;
22359;SDS011;11347;52.030;4.690;2022-07-05T07:47:35;4.30;;;0.80;;
22359;SDS011;11347;52.030;4.690;2022-07-05T07:50:02;8.77;;;0.80;;
22359;SDS011;11347;52.030;4.690;2022-07-05T07:52:28;5.17;;;0.90;;
22359;SDS011;11347;52.030;4.690;2022-07-05T07:54:55;2.70;;;0.60;;
22359;SDS011;11347;52.030;4.690;2022-07-05T07:57:21;2.23;;;0.57;;
22359;SDS011;11347;52.030;4.690;2022-07-05T07:59:46;4.30;;;0.80;;
22359;SDS011;11347;52.030;4.690;2022-07-05T08:02:12;1.43;;;0.60;;
22359;SDS011;11347;52.030;4.690;2022-07-05T08:04:38;2.33;;;0.60;;
22359;SDS011;11347;52.030;4.690;2022-07-05T08:07:03;2.20;;;0.60;;
22359;SDS011;11347;52.030;4.690;2022-07-05T08:09:29;4.67;;;0.80;;
22359;SDS011;11347;52.030;4.690;2022-07-05T08:11:55;3.97;;;0.67;;
22359;SDS011;11347;52.030;4.690;2022-07-05T08:14:21;3.37;;;0.53;;
22359;SDS011;11347;52.030;4.690;2022-07-05T08:16:47;2.10;;;0.53;;
22359;SDS011;11347;52.030;4.690;2022-07-05T08:19:14;2.53;;;0.70;;
22359;SDS011;11347;52.030;4.690;2022-07-05T08:21:58;3.23;;;0.70;;
22359;SDS011;11347;52.030;4.690;2022-07-05T08:24:23;1.07;;;0.50;;
22359;SDS011;11347;52.030;4.690;2022-07-05T08:26:52;2.87;;;0.60;;
22359;SDS011;11347;52.030;4.690;2022-07-05T08:29:17;4.03;;;0.70;;
22359;SDS011;11347;52.030;4.690;2022-07-05T08:31:44;1.40;;;0.60;;
22359;SDS011;11347;52.030;4.690;2022-07-05T08:34:12;3.53;;;0.93;;
22359;SDS011;11347;52.030;4.690;2022-07-05T08:36:39;3.70;;;0.80;;
22359;SDS011;11347;52.030;4.690;2022-07-05T08:39:06;2.50;;;0.60;;
22359;SDS011;11347;52.030;4.690;2022-07-05T08:41:34;1.73;;;0.60;;
22359;SDS011;11347;52.030;4.690;2022-07-05T08:44:01;1.63;;;0.60;;
22359;SDS011;11347;52.030;4.690;2022-07-05T08:46:31;5.00;;;0.77;;
22359;SDS011;11347;52.030;4.690;2022-07-05T08:48:58;2.13;;;0.67;;
22359;SDS011;11347;52.030;4.690;2022-07-05T08:51:25;3.80;;;0.80;;
22359;SDS011;11347;52.030;4.690;2022-07-05T08:53:53;3.50;;;0.93;;
22359;SDS011;11347;52.030;4.690;2022-07-05T08:56:20;2.50;;;0.80;;
22359;SDS011;11347;52.030;4.690;2022-07-05T08:58:46;4.37;;;0.87;;
22359;SDS011;11347;52.030;4.690;2022-07-05T09:01:14;3.73;;;0.73;;
22359;SDS011;11347;52.030;4.690;2022-07-05T09:03:47;2.27;;;0.77;;
22359;SDS011;11347;52.030;4.690;2022-07-05T09:06:20;2.70;;;0.80;;
22359;SDS011;11347;52.030;4.690;2022-07-05T09:08:49;1.90;;;0.70;;
22359;SDS011;11347;52.030;4.690;2022-07-05T09:11:19;5.23;;;0.80;;
22359;SDS011;11347;52.030;4.690;2022-07-05T09:13:49;2.13;;;0.80;;
22359;SDS011;11347;52.030;4.690;2022-07-05T09:16:16;1.20;;;0.67;;
22359;SDS011;11347;52.030;4.690;2022-07-05T09:18:52;2.93;;;0.70;;
22359;SDS011;11347;52.030;4.690;2022-07-05T09:21:24;3.73;;;0.53;;
22359;SDS011;11347;52.030;4.690;2022-07-05T09:23:55;2.70;;;0.60;;
22359;SDS011;11347;52.030;4.690;2022-07-05T09:26:24;1.70;;;0.60;;
22359;SDS011;11347;52.030;4.690;2022-07-05T09:29:19;2.03;;;0.50;;
22359;SDS011;11347;52.030;4.690;2022-07-05T09:31:48;1.73;;;0.50;;
22359;SDS011;11347;52.030;4.690;2022-07-05T09:34:16;2.70;;;0.60;;
22359;SDS011;11347;52.030;4.690;2022-07-05T09:36:50;5.57;;;0.63;;
22359;SDS011;11347;52.030;4.690;2022-07-05T09:44:55;1.30;;;0.60;;
22359;SDS011;11347;52.030;4.690;2022-07-05T09:47:22;3.10;;;0.97;;
22359;SDS011;11347;52.030;4.690;2022-07-05T09:49:49;2.37;;;0.70;;
22359;SDS011;11347;52.030;4.690;2022-07-05T09:52:29;6.70;;;1.23;;
22359;SDS011;11347;52.030;4.690;2022-07-05T09:57:41;4.07;;;0.70;;
22359;SDS011;11347;52.030;4.690;2022-07-05T10:00:09;3.17;;;0.90;;
22359;SDS011;11347;52.030;4.690;2022-07-05T10:02:41;7.30;;;1.10;;
22359;SDS011;11347;52.030;4.690;2022-07-05T10:05:15;3.83;;;0.80;;
22359;SDS011;11347;52.030;4.690;2022-07-05T10:07:48;3.93;;;0.90;;
22359;SDS011;11347;52.030;4.690;2022-07-05T10:10:16;3.00;;;0.90;;
22359;SDS011;11347;52.030;4.690;2022-07-05T10:12:43;4.73;;;0.80;;
22359;SDS011;11347;52.030;4.690;2022-07-05T10:15:11;9.73;;;1.20;;
22359;SDS011;11347;52.030;4.690;2022-07-05T10:17:46;11.07;;;1.97;;
22359;SDS011;11347;52.030;4.690;2022-07-05T10:20:19;10.57;;;2.33;;
22359;SDS011;11347;52.030;4.690;2022-07-05T10:22:50;14.90;;;2.30;;
22359;SDS011;11347;52.030;4.690;2022-07-05T10:25:17;9.27;;;1.80;;
22359;SDS011;11347;52.030;4.690;2022-07-05T10:27:45;7.63;;;2.53;;
22359;SDS011;11347;52.030;4.690;2022-07-05T10:30:12;13.20;;;2.10;;
22359;SDS011;11347;52.030;4.690;2022-07-05T10:32:39;6.40;;;1.57;;
22359;SDS011;11347;52.030;4.690;2022-07-05T10:35:07;7.40;;;1.67;;
22359;SDS011;11347;52.030;4.690;2022-07-05T10:37:33;10.97;;;1.80;;
22359;SDS011;11347;52.030;4.690;2022-07-05T10:40:00;8.47;;;1.50;;
22359;SDS011;11347;52.030;4.690;2022-07-05T10:42:30;8.50;;;1.83;;
22359;SDS011;11347;52.030;4.690;2022-07-05T10:45:01;7.63;;;1.40;;
22359;SDS011;11347;52.030;4.690;2022-07-05T10:47:27;7.23;;;1.40;;
22359;SDS011;11347;52.030;4.690;2022-07-05T10:50:04;8.57;;;1.93;;
22359;SDS011;11347;52.030;4.690;2022-07-05T10:52:30;8.10;;;1.53;;
22359;SDS011;11347;52.030;4.690;2022-07-05T10:58:17;14.27;;;1.33;;
22359;SDS011;11347;52.030;4.690;2022-07-05T11:00:48;20.17;;;2.10;;
22359;SDS011;11347;52.030;4.690;2022-07-05T11:06:08;9.87;;;1.10;;
22359;SDS011;11347;52.030;4.690;2022-07-05T11:11:25;11.77;;;2.10;;
22359;SDS011;11347;52.030;4.690;2022-07-05T11:13:55;18.87;;;3.00;;
22359;SDS011;11347;52.030;4.690;2022-07-05T11:16:31;13.40;;;2.10;;
22359;SDS011;11347;52.030;4.690;2022-07-05T11:19:04;11.33;;;1.70;;
22359;SDS011;11347;52.030;4.690;2022-07-05T11:21:31;9.10;;;2.00;;
22359;SDS011;11347;52.030;4.690;2022-07-05T11:24:17;5.27;;;1.50;;
22359;SDS011;11347;52.030;4.690;2022-07-05T11:26:50;4.63;;;1.00;;
22359;SDS011;11347;52.030;4.690;2022-07-05T11:32:10;6.17;;;1.20;;
22359;SDS011;11347;52.030;4.690;2022-07-05T11:34:38;2.47;;;0.80;;
22359;SDS011;11347;52.030;4.690;2022-07-05T11:40:25;6.20;;;0.70;;
22359;SDS011;11347;52.030;4.690;2022-07-05T11:42:51;4.60;;;0.70;;
22359;SDS011;11347;52.030;4.690;2022-07-05T11:45:17;2.57;;;0.70;;
22359;SDS011;11347;52.030;4.690;2022-07-05T11:47:43;2.20;;;0.87;;
22359;SDS011;11347;52.030;4.690;2022-07-05T11:50:09;2.13;;;0.60;;
22359;SDS011;11347;52.030;4.690;2022-07-05T11:52:36;3.60;;;0.90;;
22359;SDS011;11347;52.030;4.690;2022-07-05T11:55:04;3.17;;;0.60;;
22359;SDS011;11347;52.030;4.690;2022-07-05T11:57:31;2.43;;;0.70;;
22359;SDS011;11347;52.030;4.690;2022-07-05T11:59:57;3.03;;;0.60;;
22359;SDS011;11347;52.030;4.690;2022-07-05T12:02:22;2.30;;;0.57;;
22359;SDS011;11347;52.030;4.690;2022-07-05T12:04:51;1.03;;;0.40;;
22359;SDS011;11347;52.030;4.690;2022-07-05T12:07:27;1.73;;;0.50;;
22359;SDS011;11347;52.030;4.690;2022-07-05T12:09:53;2.00;;;0.40;;
22359;SDS011;11347;52.030;4.690;2022-07-05T12:12:37;2.03;;;0.50;;
22359;SDS011;11347;52.030;4.690;2022-07-05T12:15:15;1.30;;;0.43;;
22359;SDS011;11347;52.030;4.690;2022-07-05T12:17:42;2.30;;;0.50;;
22359;SDS011;11347;52.030;4.690;2022-07-05T12:20:12;1.57;;;0.53;;
22359;SDS011;11347;52.030;4.690;2022-07-05T12:22:40;1.23;;;0.40;;
22359;SDS011;11347;52.030;4.690;2022-07-05T12:25:10;1.47;;;0.60;;
22359;SDS011;11347;52.030;4.690;2022-07-05T12:27:38;0.67;;;0.40;;
22359;SDS011;11347;52.030;4.690;2022-07-05T12:30:05;1.67;;;0.40;;
22359;SDS011;11347;52.030;4.690;2022-07-05T12:32:33;2.70;;;0.40;;
22359;SDS011;11347;52.030;4.690;2022-07-05T12:35:01;1.80;;;0.40;;
22359;SDS011;11347;52.030;4.690;2022-07-05T12:37:27;1.27;;;0.50;;
22359;SDS011;11347;52.030;4.690;2022-07-05T12:40:06;1.53;;;0.50;;
22359;SDS011;11347;52.030;4.690;2022-07-05T12:42:33;1.30;;;0.50;;
22359;SDS011;11347;52.030;4.690;2022-07-05T12:45:10;2.43;;;0.50;;
22359;SDS011;11347;52.030;4.690;2022-07-05T12:47:36;1.80;;;0.50;;
22359;SDS011;11347;52.030;4.690;2022-07-05T12:50:23;1.80;;;0.40;;
22359;SDS011;11347;52.030;4.690;2022-07-05T12:52:57;2.70;;;0.60;;
22359;SDS011;11347;52.030;4.690;2022-07-05T12:55:49;1.03;;;0.40;;
22359;SDS011;11347;52.030;4.690;2022-07-05T12:58:44;2.00;;;0.50;;
22359;SDS011;11347;52.030;4.690;2022-07-05T13:09:08;1.17;;;0.40;;
22359;SDS011;11347;52.030;4.690;2022-07-05T13:11:34;1.50;;;0.50;;
22359;SDS011;11347;52.030;4.690;2022-07-05T13:14:03;0.73;;;0.40;;
22359;SDS011;11347;52.030;4.690;2022-07-05T13:16:28;0.90;;;0.47;;
22359;SDS011;11347;52.030;4.690;2022-07-05T13:18:54;0.70;;;0.40;;
22359;SDS011;11347;52.030;4.690;2022-07-05T13:21:30;2.30;;;0.60;;
22359;SDS011;11347;52.030;4.690;2022-07-05T13:24:02;2.93;;;0.50;;
22359;SDS011;11347;52.030;4.690;2022-07-05T13:26:31;2.03;;;0.53;;
22359;SDS011;11347;52.030;4.690;2022-07-05T13:28:57;3.07;;;0.50;;
22359;SDS011;11347;52.030;4.690;2022-07-05T13:31:28;3.30;;;0.40;;
22359;SDS011;11347;52.030;4.690;2022-07-05T13:33:55;0.97;;;0.47;;
22359;SDS011;11347;52.030;4.690;2022-07-05T13:36:21;1.00;;;0.50;;
22359;SDS011;11347;52.030;4.690;2022-07-05T13:38:50;1.67;;;0.60;;
22359;SDS011;11347;52.030;4.690;2022-07-05T13:41:15;1.37;;;0.50;;
22359;SDS011;11347;52.030;4.690;2022-07-05T13:43:41;4.53;;;0.57;;
22359;SDS011;11347;52.030;4.690;2022-07-05T13:46:09;2.90;;;0.67;;
22359;SDS011;11347;52.030;4.690;2022-07-05T13:48:36;2.97;;;1.10;;
22359;SDS011;11347;52.030;4.690;2022-07-05T13:51:04;2.80;;;0.80;;
22359;SDS011;11347;52.030;4.690;2022-07-05T13:53:31;1.83;;;0.50;;
22359;SDS011;11347;52.030;4.690;2022-07-05T13:55:56;2.17;;;0.60;;
22359;SDS011;11347;52.030;4.690;2022-07-05T13:58:22;1.97;;;0.60;;
22359;SDS011;11347;52.030;4.690;2022-07-05T14:00:48;2.87;;;0.50;;
22359;SDS011;11347;52.030;4.690;2022-07-05T14:03:14;1.57;;;0.80;;
22359;SDS011;11347;52.030;4.690;2022-07-05T14:05:41;3.67;;;0.60;;
22359;SDS011;11347;52.030;4.690;2022-07-05T14:08:09;1.50;;;0.50;;
22359;SDS011;11347;52.030;4.690;2022-07-05T14:10:36;0.87;;;0.67;;
22359;SDS011;11347;52.030;4.690;2022-07-05T14:13:02;1.53;;;0.67;;
22359;SDS011;11347;52.030;4.690;2022-07-05T14:15:27;3.70;;;0.73;;
22359;SDS011;11347;52.030;4.690;2022-07-05T14:17:53;1.93;;;0.60;;
22359;SDS011;11347;52.030;4.690;2022-07-05T14:20:18;2.43;;;0.80;;
22359;SDS011;11347;52.030;4.690;2022-07-05T14:22:44;3.67;;;0.70;;
22359;SDS011;11347;52.030;4.690;2022-07-05T14:25:09;2.63;;;0.70;;
22359;SDS011;11347;52.030;4.690;2022-07-05T14:27:35;1.63;;;0.70;;
22359;SDS011;11347;52.030;4.690;2022-07-05T14:30:02;2.90;;;0.60;;
22359;SDS011;11347;52.030;4.690;2022-07-05T14:32:32;1.13;;;0.67;;
22359;SDS011;11347;52.030;4.690;2022-07-05T14:34:58;3.93;;;0.70;;
22359;SDS011;11347;52.030;4.690;2022-07-05T14:37:23;1.80;;;0.60;;
22359;SDS011;11347;52.030;4.690;2022-07-05T14:39:49;2.73;;;0.70;;
22359;SDS011;11347;52.030;4.690;2022-07-05T14:42:15;2.10;;;0.67;;
22359;SDS011;11347;52.030;4.690;2022-07-05T14:44:40;1.53;;;0.67;;
22359;SDS011;11347;52.030;4.690;2022-07-05T14:47:06;2.07;;;0.63;;
22359;SDS011;11347;52.030;4.690;2022-07-05T14:49:35;2.30;;;0.80;;
22359;SDS011;11347;52.030;4.690;2022-07-05T14:52:00;2.23;;;0.60;;
22359;SDS011;11347;52.030;4.690;2022-07-05T14:54:26;1.63;;;0.60;;
22359;SDS011;11347;52.030;4.690;2022-07-05T14:56:54;2.57;;;0.60;;
22359;SDS011;11347;52.030;4.690;2022-07-05T14:59:20;3.47;;;0.73;;
22359;SDS011;11347;52.030;4.690;2022-07-05T15:01:45;2.67;;;0.60;;
22359;SDS011;11347;52.030;4.690;2022-07-05T15:04:11;2.33;;;0.67;;
22359;SDS011;11347;52.030;4.690;2022-07-05T15:06:37;1.60;;;0.57;;
22359;SDS011;11347;52.030;4.690;2022-07-05T15:09:04;3.43;;;0.60;;
22359;SDS011;11347;52.030;4.690;2022-07-05T15:11:30;2.40;;;0.70;;
22359;SDS011;11347;52.030;4.690;2022-07-05T15:13:55;3.43;;;0.60;;
22359;SDS011;11347;52.030;4.690;2022-07-05T15:16:21;4.37;;;0.87;;
22359;SDS011;11347;52.030;4.690;2022-07-05T15:18:46;2.57;;;0.80;;
22359;SDS011;11347;52.030;4.690;2022-07-05T15:21:12;1.70;;;0.60;;
22359;SDS011;11347;52.030;4.690;2022-07-05T15:23:37;3.23;;;0.80;;
22359;SDS011;11347;52.030;4.690;2022-07-05T15:26:03;2.00;;;1.00;;